createdAt,value
2023-08-21T00:01:58.588Z,99573.27
2023-08-21T00:04:29.620Z,99575.23
2023-08-21T00:07:01.083Z,99571.70
2023-08-21T00:09:31.785Z,99571.59
2023-08-21T00:12:02.553Z,99574.38
2023-08-21T00:14:33.428Z,99569.20
2023-08-21T00:17:05.472Z,99568.32
2023-08-21T00:19:36.427Z,99568.57
2023-08-21T00:22:07.368Z,99563.41
2023-08-21T00:24:38.188Z,99563.20
2023-08-21T00:27:09.247Z,99560.89
2023-08-21T00:29:40.279Z,99565.70
2023-08-21T00:32:13.205Z,99558.64
2023-08-21T00:34:44.058Z,99559.85
2023-08-21T00:37:17.498Z,99561.06
2023-08-21T00:39:48.301Z,99560.25
2023-08-21T00:42:19.430Z,99561.94
2023-08-21T00:44:50.222Z,99554.97
2023-08-21T00:47:21.734Z,99551.38
2023-08-21T00:49:52.766Z,99557.30
2023-08-21T00:52:23.813Z,99559.05
2023-08-21T00:54:55.149Z,99554.65
2023-08-21T00:57:27.552Z,99561.75
2023-08-21T00:59:58.439Z,99556.33
2023-08-21T01:02:29.332Z,99552.50
2023-08-21T01:05:00.501Z,99557.06
2023-08-21T01:07:32.018Z,99555.70
2023-08-21T01:10:10.572Z,99556.62
2023-08-21T01:12:50.974Z,99555.92
2023-08-21T01:15:22.126Z,99561.98
2023-08-21T01:17:54.231Z,99561.37
2023-08-21T01:20:25.553Z,99566.45
2023-08-21T01:22:56.297Z,99567.13
2023-08-21T01:25:27.215Z,99563.98
2023-08-21T01:27:57.952Z,99561.66
2023-08-21T01:30:31.069Z,99563.41
2023-08-21T01:33:08.080Z,99560.11
2023-08-21T01:35:39.820Z,99564.09
2023-08-21T01:38:10.962Z,99562.73
2023-08-21T01:40:42.303Z,99564.02
2023-08-21T01:43:12.980Z,99558.10
2023-08-21T01:45:43.796Z,99556.67
2023-08-21T01:48:14.761Z,99554.38
2023-08-21T01:50:45.618Z,99553.30
2023-08-21T01:53:16.289Z,99553.77
2023-08-21T01:55:47.149Z,99555.75
2023-08-21T01:58:17.890Z,99562.16
2023-08-21T02:00:51.365Z,99561.77
2023-08-21T02:03:22.333Z,99568.59
2023-08-21T02:05:53.560Z,99567.83
2023-08-21T02:08:24.203Z,99563.87
2023-08-21T02:10:55.362Z,99570.83
2023-08-21T02:13:26.203Z,99568.02
2023-08-21T02:15:57.193Z,99567.44
2023-08-21T02:18:28.210Z,99566.23
2023-08-21T02:20:58.955Z,99565.42
2023-08-21T02:23:30.087Z,99566.47
2023-08-21T02:26:00.986Z,99567.20
2023-08-21T02:28:32.156Z,99554.46
2023-08-21T02:31:03.064Z,99559.48
2023-08-21T02:33:34.775Z,99560.25
2023-08-21T02:36:05.946Z,99556.80
2023-08-21T02:38:36.818Z,99558.07
2023-08-21T02:41:07.540Z,99550.60
2023-08-21T02:43:39.054Z,99550.93
2023-08-21T02:46:09.935Z,99544.55
2023-08-21T02:48:40.817Z,99542.64
2023-08-21T02:51:11.963Z,99541.96
2023-08-21T02:53:42.746Z,99540.34
2023-08-21T02:56:13.769Z,99540.44
2023-08-21T02:58:44.535Z,99543.74
2023-08-21T03:01:15.515Z,99547.05
2023-08-21T03:03:46.519Z,99546.90
2023-08-21T03:06:17.883Z,99548.00
2023-08-21T03:08:49.139Z,99551.81
2023-08-21T03:11:20.038Z,99549.39
2023-08-21T03:13:50.776Z,99548.21
2023-08-21T03:16:21.488Z,99549.50
2023-08-21T03:19:02.881Z,99554.23
2023-08-21T03:21:33.636Z,99548.73
2023-08-21T03:24:05.181Z,99553.91
2023-08-21T03:26:36.509Z,99553.23
2023-08-21T03:29:07.597Z,99552.80
2023-08-21T03:31:38.307Z,99554.17
2023-08-21T03:34:09.750Z,99547.59
2023-08-21T03:36:40.610Z,99550.63
2023-08-21T03:39:11.561Z,99553.48
2023-08-21T03:41:42.319Z,99547.18
2023-08-21T03:44:15.496Z,99548.44
2023-08-21T03:46:46.805Z,99545.70
2023-08-21T03:49:20.547Z,99539.36
2023-08-21T03:51:51.717Z,99539.90
2023-08-21T03:54:22.624Z,99543.30
2023-08-21T03:56:53.326Z,99543.49
2023-08-21T03:59:25.047Z,99547.21
2023-08-21T04:01:55.733Z,99544.23
2023-08-21T04:04:26.468Z,99545.13
2023-08-21T04:06:57.242Z,99545.27
2023-08-21T04:09:27.923Z,99553.74
2023-08-21T04:11:58.587Z,99557.15
2023-08-21T04:14:29.886Z,99553.27
2023-08-21T04:17:00.582Z,99552.03
2023-08-21T04:19:34.779Z,99557.21
2023-08-21T04:22:05.653Z,99560.39
2023-08-21T04:24:36.374Z,99561.20
2023-08-21T04:27:07.564Z,99558.07
2023-08-21T04:29:38.924Z,99560.30
2023-08-21T04:32:10.044Z,99557.51
2023-08-21T04:34:40.784Z,99559.31
2023-08-21T04:37:11.431Z,99561.25
2023-08-21T04:39:42.127Z,99561.32
2023-08-21T04:42:13.202Z,99562.80
2023-08-21T04:44:43.926Z,99560.31
2023-08-21T04:47:25.352Z,99558.75
2023-08-21T04:49:57.212Z,99563.19
2023-08-21T04:52:28.524Z,99564.48
2023-08-21T04:54:59.299Z,99559.77
2023-08-21T04:57:30.094Z,99567.19
2023-08-21T05:00:01.231Z,99568.40
2023-08-21T05:02:32.345Z,99573.75
2023-08-21T05:05:03.254Z,99573.13
2023-08-21T05:07:34.033Z,99575.86
2023-08-21T05:10:06.067Z,99575.38
2023-08-21T05:12:37.876Z,99576.06
2023-08-21T05:15:10.663Z,99575.48
2023-08-21T05:17:41.688Z,99574.98
2023-08-21T05:20:15.947Z,99583.02
2023-08-21T05:22:47.076Z,99586.02
2023-08-21T05:25:18.691Z,99592.92
2023-08-21T05:27:49.793Z,99597.77
2023-08-21T05:30:21.360Z,99595.29
2023-08-21T05:32:52.576Z,99604.35
2023-08-21T05:35:23.838Z,99603.93
2023-08-21T05:37:54.896Z,99604.21
2023-08-21T05:40:25.762Z,99605.38
2023-08-21T05:42:56.611Z,99603.80
2023-08-21T05:45:27.551Z,99602.95
2023-08-21T05:47:59.013Z,99602.88
2023-08-21T05:50:30.055Z,99606.73
2023-08-21T05:53:02.902Z,99608.56
2023-08-21T05:55:34.069Z,99611.19
2023-08-21T05:58:05.447Z,99608.44
2023-08-21T06:00:36.999Z,99609.95
2023-08-21T06:03:08.290Z,99619.67
2023-08-21T06:05:39.304Z,99617.39
2023-08-21T06:08:11.047Z,99616.19
2023-08-21T06:10:41.955Z,99611.63
2023-08-21T06:13:12.846Z,99611.57
2023-08-21T06:15:46.187Z,99609.62
2023-08-21T06:18:15.402Z,99608.14
2023-08-21T06:20:47.487Z,99612.02
2023-08-21T06:23:18.325Z,99610.35
2023-08-21T06:25:51.434Z,99613.42
2023-08-21T06:28:22.282Z,99614.00
2023-08-21T06:31:02.136Z,99616.30
2023-08-21T06:33:33.103Z,99611.80
2023-08-21T06:36:04.107Z,99609.70
2023-08-21T06:38:36.527Z,99609.12
2023-08-21T06:41:12.493Z,99615.95
2023-08-21T06:43:45.534Z,99617.10
2023-08-21T06:46:16.936Z,99616.88
2023-08-21T06:48:48.041Z,99615.92
2023-08-21T06:51:18.930Z,99608.73
2023-08-21T06:53:49.908Z,99607.52
2023-08-21T06:56:20.717Z,99609.33
2023-08-21T06:58:51.513Z,99614.89
2023-08-21T07:01:22.415Z,99613.87
2023-08-21T07:03:53.506Z,99615.42
2023-08-21T07:06:24.672Z,99610.70
2023-08-21T07:08:55.782Z,99608.51
2023-08-21T07:11:26.707Z,99612.19
2023-08-21T07:13:58.018Z,99612.85
2023-08-21T07:16:28.960Z,99613.92
2023-08-21T07:19:00.018Z,99614.98
2023-08-21T07:21:33.900Z,99616.29
2023-08-21T07:24:06.718Z,99616.70
2023-08-21T07:26:37.910Z,99615.48
2023-08-21T07:29:09.206Z,99617.77
2023-08-21T07:31:40.129Z,99619.28
2023-08-21T07:34:11.244Z,99618.30
2023-08-21T07:36:42.359Z,99618.53
2023-08-21T07:39:13.067Z,99623.97
2023-08-21T07:41:43.901Z,99620.89
2023-08-21T07:44:14.715Z,99618.45
2023-08-21T07:46:45.559Z,99612.50
2023-08-21T07:49:16.421Z,99609.73
2023-08-21T07:51:47.751Z,99607.38
2023-08-21T07:54:18.913Z,99612.02
2023-08-21T07:56:49.904Z,99611.62
2023-08-21T07:59:21.151Z,99616.86
2023-08-21T08:01:52.113Z,99619.14
2023-08-21T08:04:23.921Z,99616.36
2023-08-21T08:06:54.665Z,99618.89
2023-08-21T08:09:26.208Z,99619.55
2023-08-21T08:11:57.079Z,99616.95
2023-08-21T08:14:27.794Z,99619.57
2023-08-21T08:16:58.816Z,99617.20
2023-08-21T08:19:30.079Z,99616.80
2023-08-21T08:22:01.370Z,99613.05
2023-08-21T08:24:32.157Z,99612.41
2023-08-21T08:27:03.097Z,99613.14
2023-08-21T08:29:34.049Z,99611.12
2023-08-21T08:32:05.235Z,99607.20
2023-08-21T08:34:35.952Z,99612.12
2023-08-21T08:37:06.911Z,99611.31
2023-08-21T08:39:37.749Z,99610.33
2023-08-21T08:42:10.478Z,99611.89
2023-08-21T08:44:42.401Z,99606.59
2023-08-21T08:47:14.439Z,99602.92
2023-08-21T08:49:45.474Z,99600.83
2023-08-21T08:52:18.803Z,99601.23
2023-08-21T08:54:48.338Z,99600.41
2023-08-21T08:57:19.232Z,99599.80
2023-08-21T08:59:50.060Z,99599.16
2023-08-21T09:02:21.001Z,99598.27
2023-08-21T09:04:51.874Z,99598.53
2023-08-21T09:07:22.995Z,99594.77
2023-08-21T09:09:54.184Z,99599.13
2023-08-21T09:12:25.682Z,99595.11
2023-08-21T09:14:56.484Z,99595.55
2023-08-21T09:17:28.216Z,99597.20
2023-08-21T09:20:05.685Z,99590.35
2023-08-21T09:22:36.972Z,99591.95
2023-08-21T09:25:11.594Z,99595.60
2023-08-21T09:27:43.453Z,99598.72
2023-08-21T09:30:17.353Z,99598.00
2023-08-21T09:33:01.330Z,99593.35
2023-08-21T09:35:34.977Z,99590.60
2023-08-21T09:38:08.130Z,99586.62
2023-08-21T09:40:43.266Z,99586.25
2023-08-21T09:43:14.490Z,99586.00
2023-08-21T09:45:47.964Z,99583.71
2023-08-21T09:48:19.043Z,99580.30
2023-08-21T09:50:50.452Z,99580.87
2023-08-21T09:53:22.538Z,99584.26
2023-08-21T09:55:57.290Z,99583.92
2023-08-21T09:58:28.396Z,99582.91
2023-08-21T10:01:01.334Z,99582.14
2023-08-21T10:03:34.348Z,99580.98
2023-08-21T10:06:07.422Z,99577.16
2023-08-21T10:08:41.838Z,99574.48
2023-08-21T10:11:13.829Z,99571.77
2023-08-21T10:13:46.672Z,99569.75
2023-08-21T10:16:19.103Z,99567.95
2023-08-21T10:18:50.418Z,99566.58
2023-08-21T10:21:23.327Z,99563.80
2023-08-21T10:23:58.003Z,99567.44
2023-08-21T10:26:33.763Z,99569.01
2023-08-21T10:29:08.517Z,99567.64
2023-08-21T10:31:40.904Z,99569.04
2023-08-21T10:34:14.297Z,99565.77
2023-08-21T10:37:08.815Z,99567.15
2023-08-21T10:39:41.483Z,99565.13
2023-08-21T10:42:16.529Z,99565.05
2023-08-21T10:45:00.620Z,99568.34
2023-08-21T10:47:37.341Z,99567.71
2023-08-21T10:50:11.248Z,99566.44
2023-08-21T10:52:46.126Z,99571.05
2023-08-21T10:55:19.446Z,99572.11
2023-08-21T10:57:51.894Z,99572.84
2023-08-21T11:00:23.867Z,99573.92
2023-08-21T11:02:54.829Z,99574.85
2023-08-21T11:05:25.757Z,99574.30
2023-08-21T11:07:56.933Z,99572.59
2023-08-21T11:10:30.440Z,99570.63
2023-08-21T11:13:02.365Z,99569.89
2023-08-21T11:15:33.514Z,99571.36
2023-08-21T11:18:05.656Z,99573.10
2023-08-21T11:20:38.690Z,99570.00
2023-08-21T11:23:10.370Z,99571.08
2023-08-21T11:25:43.561Z,99573.54
2023-08-21T11:28:18.456Z,99573.67
2023-08-21T11:30:49.329Z,99569.36
2023-08-21T11:33:20.236Z,99562.34
2023-08-21T11:35:53.366Z,99557.17
2023-08-21T11:38:26.050Z,99557.52
2023-08-21T11:40:59.441Z,99553.37
2023-08-21T11:43:41.093Z,99547.31
2023-08-21T11:46:13.320Z,99551.34
2023-08-21T11:48:46.062Z,99552.02
2023-08-21T11:51:17.089Z,99557.29
2023-08-21T11:53:51.258Z,99553.14
2023-08-21T11:56:24.715Z,99558.31
2023-08-21T11:58:58.003Z,99559.14
2023-08-21T12:01:29.321Z,99559.23
2023-08-21T12:04:00.176Z,99559.16
2023-08-21T12:06:33.691Z,99554.02
2023-08-21T12:09:05.967Z,99554.74
2023-08-21T12:11:43.340Z,99555.41
2023-08-21T12:14:14.388Z,99556.97
2023-08-21T12:16:46.015Z,99549.52
2023-08-21T12:19:17.511Z,99548.82
2023-08-21T12:21:48.478Z,99548.02
2023-08-21T12:24:19.302Z,99549.01
2023-08-21T12:26:51.290Z,99546.42
2023-08-21T12:29:23.230Z,99548.48
2023-08-21T12:31:54.994Z,99544.09
2023-08-21T12:34:25.786Z,99543.21
2023-08-21T12:36:57.736Z,99542.09
2023-08-21T12:39:28.544Z,99541.70
2023-08-21T12:42:01.676Z,99538.58
2023-08-21T12:47:05.115Z,99530.63
2023-08-21T12:49:36.730Z,99531.60
2023-08-21T12:52:10.443Z,99529.89
2023-08-21T12:54:42.781Z,99528.52
2023-08-21T12:57:13.775Z,99529.27
2023-08-21T12:59:44.593Z,99526.15
2023-08-21T13:02:15.351Z,99525.27
2023-08-21T13:04:46.167Z,99520.03
2023-08-21T13:07:17.554Z,99521.50
2023-08-21T13:09:48.875Z,99523.23
2023-08-21T13:12:19.791Z,99518.48
2023-08-21T13:14:50.918Z,99519.22
2023-08-21T13:17:21.964Z,99511.86
2023-08-21T13:19:52.885Z,99513.17
2023-08-21T13:22:24.077Z,99511.12
2023-08-21T13:24:55.065Z,99505.48
2023-08-21T13:27:26.029Z,99504.74
2023-08-21T13:29:57.125Z,99503.12
2023-08-21T13:32:28.162Z,99497.90
2023-08-21T13:35:01.340Z,99492.38
2023-08-21T13:37:32.254Z,99490.51
2023-08-21T13:40:12.935Z,99491.40
2023-08-21T13:42:45.572Z,99492.14
2023-08-21T13:45:22.357Z,99489.36
2023-08-21T13:48:06.954Z,99487.73
2023-08-21T13:50:38.093Z,99485.77
2023-08-21T13:53:09.404Z,99483.50
2023-08-21T13:55:40.591Z,99483.02
2023-08-21T13:58:13.457Z,99481.80
2023-08-21T14:00:46.040Z,99484.30
2023-08-21T14:03:21.674Z,99480.12
2023-08-21T14:05:52.818Z,99481.69
2023-08-21T14:08:23.908Z,99483.25
2023-08-21T14:10:58.703Z,99483.77
2023-08-21T14:13:35.692Z,99480.67
2023-08-21T14:16:11.228Z,99481.83
2023-08-21T14:18:42.726Z,99476.77
2023-08-21T14:21:13.961Z,99475.05
2023-08-21T14:23:44.910Z,99471.54
2023-08-21T14:26:19.047Z,99468.96
2023-08-21T14:28:51.832Z,99473.23
2023-08-21T14:31:22.788Z,99468.58
2023-08-21T14:33:53.828Z,99468.58
2023-08-21T14:36:24.961Z,99465.86
2023-08-21T14:39:00.701Z,99463.58
2023-08-21T14:41:33.259Z,99463.41
2023-08-21T14:44:04.183Z,99461.61
2023-08-21T14:49:11.413Z,99461.14
2023-08-21T14:51:42.830Z,99463.80
2023-08-21T14:54:13.966Z,99461.59
2023-08-21T14:56:47.081Z,99465.69
2023-08-21T14:59:18.191Z,99461.27
2023-08-21T15:01:49.546Z,99461.51
2023-08-21T15:04:20.360Z,99461.91
2023-08-21T15:06:57.868Z,99459.70
2023-08-21T15:09:28.850Z,99461.66
2023-08-21T15:11:59.616Z,99459.55
2023-08-21T15:14:30.807Z,99454.98
2023-08-21T15:17:17.638Z,99460.16
2023-08-21T15:19:51.353Z,99459.82
2023-08-21T15:22:22.443Z,99457.45
2023-08-21T15:24:53.491Z,99458.21
2023-08-21T15:27:24.480Z,99453.92
2023-08-21T15:29:55.376Z,99452.64
2023-08-21T15:32:26.401Z,99450.30
2023-08-21T15:34:57.466Z,99450.15
2023-08-21T15:37:28.492Z,99448.43
2023-08-21T15:39:59.525Z,99448.00
2023-08-21T15:42:30.609Z,99449.73
2023-08-21T15:45:01.622Z,99444.61
2023-08-21T15:50:07.033Z,99438.95
2023-08-21T15:52:38.870Z,99437.73
2023-08-21T15:55:11.073Z,99435.89
2023-08-21T15:57:42.125Z,99432.79
2023-08-21T16:00:14.801Z,99430.77
2023-08-21T16:02:45.619Z,99434.30
2023-08-21T16:05:16.589Z,99436.84
2023-08-21T16:07:47.308Z,99432.85
2023-08-21T16:10:18.376Z,99432.13
2023-08-21T16:12:49.182Z,99427.69
2023-08-21T16:15:20.038Z,99429.27
2023-08-21T16:17:51.885Z,99431.90
2023-08-21T16:20:22.828Z,99435.36
2023-08-21T16:22:53.609Z,99437.02
2023-08-21T16:25:25.487Z,99437.19
2023-08-21T16:27:56.271Z,99440.73
2023-08-21T16:30:26.993Z,99436.81
2023-08-21T16:32:58.076Z,99438.71
2023-08-21T16:35:29.263Z,99443.36
2023-08-21T16:38:00.380Z,99439.92
2023-08-21T16:40:31.296Z,99441.16
2023-08-21T16:43:02.319Z,99438.14
2023-08-21T16:45:35.731Z,99438.09
2023-08-21T16:48:07.517Z,99437.46
2023-08-21T16:50:38.322Z,99437.27
2023-08-21T16:53:21.744Z,99441.73
2023-08-21T16:55:54.455Z,99438.82
2023-08-21T16:58:25.535Z,99439.90
2023-08-21T17:00:56.885Z,99444.11
2023-08-21T17:03:28.261Z,99445.14
2023-08-21T17:05:59.227Z,99442.36
2023-08-21T17:08:30.303Z,99447.79
2023-08-21T17:11:01.114Z,99441.20
2023-08-21T17:13:32.237Z,99440.48
2023-08-21T17:16:03.540Z,99433.85
2023-08-21T17:18:34.655Z,99436.59
2023-08-21T17:21:05.732Z,99429.66
2023-08-21T17:23:36.581Z,99422.77
2023-08-21T17:26:07.526Z,99420.58
2023-08-21T17:28:38.298Z,99422.33
2023-08-21T17:31:09.116Z,99428.73
2023-08-21T17:33:39.957Z,99427.27
2023-08-21T17:36:10.839Z,99428.27
2023-08-21T17:38:42.940Z,99435.55
2023-08-21T17:41:13.751Z,99434.58
2023-08-21T17:43:44.666Z,99430.73
2023-08-21T17:46:17.887Z,99435.33
2023-08-21T17:48:47.910Z,99432.95
2023-08-21T17:51:18.758Z,99435.71
2023-08-21T17:53:50.669Z,99434.26
2023-08-21T17:56:21.876Z,99440.01
2023-08-21T17:58:52.705Z,99442.23
2023-08-21T18:01:24.600Z,99442.48
2023-08-21T18:03:55.561Z,99444.38
2023-08-21T18:06:27.075Z,99446.83
2023-08-21T18:08:57.950Z,99446.94
2023-08-21T18:11:28.924Z,99454.55
2023-08-21T18:13:59.835Z,99456.45
2023-08-21T18:16:32.956Z,99452.88
2023-08-21T18:19:04.140Z,99455.91
2023-08-21T18:21:35.117Z,99457.77
2023-08-21T18:24:06.576Z,99457.95
2023-08-21T18:26:38.445Z,99459.41
2023-08-21T18:29:09.292Z,99456.97
2023-08-21T18:31:40.196Z,99456.17
2023-08-21T18:34:11.332Z,99458.65
2023-08-21T18:36:42.238Z,99462.18
2023-08-21T18:39:13.396Z,99459.27
2023-08-21T18:41:45.288Z,99462.88
2023-08-21T18:44:16.222Z,99465.92
2023-08-21T18:46:47.554Z,99466.99
2023-08-21T18:49:18.603Z,99469.05
2023-08-21T18:51:49.636Z,99471.12
2023-08-21T18:54:24.607Z,99477.13
2023-08-21T18:56:56.410Z,99478.03
2023-08-21T18:59:27.397Z,99481.63
2023-08-21T19:01:59.306Z,99477.21
2023-08-21T19:04:33.435Z,99482.23
2023-08-21T19:07:06.965Z,99481.17
2023-08-21T19:09:38.478Z,99481.00
2023-08-21T19:12:10.485Z,99486.81
2023-08-21T19:14:41.726Z,99492.86
2023-08-21T19:17:12.701Z,99498.25
2023-08-21T19:19:43.768Z,99496.33
2023-08-21T19:22:14.740Z,99498.30
2023-08-21T19:24:45.813Z,99493.46
2023-08-21T19:27:17.123Z,99493.20
2023-08-21T19:29:49.742Z,99488.88
2023-08-21T19:32:20.919Z,99494.59
2023-08-21T19:34:52.956Z,99497.86
2023-08-21T19:37:23.894Z,99498.43
2023-08-21T19:39:54.787Z,99504.67
2023-08-21T19:42:26.303Z,99505.48
2023-08-21T19:44:57.335Z,99508.42
2023-08-21T19:47:28.141Z,99508.77
2023-08-21T19:49:59.376Z,99510.40
2023-08-21T19:52:30.424Z,99509.42
2023-08-21T19:55:01.466Z,99507.41
2023-08-21T19:57:32.813Z,99513.65
2023-08-21T20:00:06.361Z,99510.56
2023-08-21T20:02:38.082Z,99512.27
2023-08-21T20:05:10.681Z,99510.77
2023-08-21T20:07:42.045Z,99511.77
2023-08-21T20:10:14.224Z,99506.08
2023-08-21T20:12:46.666Z,99507.86
2023-08-21T20:15:18.027Z,99510.16
2023-08-21T20:17:49.207Z,99512.54
2023-08-21T20:20:20.118Z,99512.94
2023-08-21T20:22:51.074Z,99508.83
2023-08-21T20:25:22.441Z,99507.01
2023-08-21T20:27:53.409Z,99512.41
2023-08-21T20:30:24.489Z,99520.41
2023-08-21T20:32:55.377Z,99523.80
2023-08-21T20:35:26.200Z,99524.26
2023-08-21T20:37:57.222Z,99529.95
2023-08-21T20:40:28.523Z,99532.77
2023-08-21T20:42:59.418Z,99532.73
2023-08-21T20:45:31.588Z,99534.48
2023-08-21T20:48:02.767Z,99530.20
2023-08-21T20:50:35.991Z,99533.16
2023-08-21T20:53:07.374Z,99534.29
2023-08-21T20:55:38.754Z,99538.45
2023-08-21T20:58:09.530Z,99544.11
2023-08-21T21:00:40.527Z,99540.46
2023-08-21T21:03:11.471Z,99542.16
2023-08-21T21:05:42.413Z,99546.94
2023-08-21T21:08:13.350Z,99548.37
2023-08-21T21:10:44.281Z,99552.09
2023-08-21T21:13:15.080Z,99547.53
2023-08-21T21:15:45.782Z,99549.98
2023-08-21T21:18:16.637Z,99553.08
2023-08-21T21:20:47.580Z,99554.29
2023-08-21T21:23:18.402Z,99556.13
2023-08-21T21:25:49.132Z,99559.70
2023-08-21T21:28:19.824Z,99560.24
2023-08-21T21:30:56.787Z,99563.58
2023-08-21T21:33:29.064Z,99560.52
2023-08-21T21:36:03.776Z,99558.50
2023-08-21T21:38:35.650Z,99561.67
2023-08-21T21:41:06.415Z,99559.45
2023-08-21T21:43:37.162Z,99563.64
2023-08-21T21:46:11.078Z,99570.53
2023-08-21T21:48:42.152Z,99562.66
2023-08-21T21:51:13.324Z,99562.70
2023-08-21T21:53:44.130Z,99564.55
2023-08-21T21:56:14.912Z,99565.27
2023-08-21T21:58:46.128Z,99560.17
2023-08-21T22:01:18.435Z,99558.27
2023-08-21T22:03:50.430Z,99553.98
2023-08-21T22:06:21.457Z,99553.84
2023-08-21T22:08:52.474Z,99554.85
2023-08-21T22:11:23.321Z,99554.17
2023-08-21T22:13:54.241Z,99556.02
2023-08-21T22:16:25.092Z,99549.11
2023-08-21T22:18:55.953Z,99551.87
2023-08-21T22:21:26.819Z,99549.55
2023-08-21T22:23:57.797Z,99550.34
2023-08-21T22:26:28.506Z,99549.98
2023-08-21T22:28:59.283Z,99549.16
2023-08-21T22:31:41.138Z,99550.47
2023-08-21T22:34:12.790Z,99548.90
2023-08-21T22:36:44.897Z,99549.75
2023-08-21T22:39:15.622Z,99549.63
2023-08-21T22:41:46.806Z,99552.23
2023-08-21T22:44:17.630Z,99554.17
2023-08-21T22:46:50.000Z,99549.00
2023-08-21T22:49:20.765Z,99550.84
2023-08-21T22:51:53.232Z,99550.88
2023-08-21T22:54:24.243Z,99547.97
2023-08-21T22:56:54.958Z,99550.63
2023-08-21T22:59:25.756Z,99548.30
2023-08-21T23:01:56.792Z,99545.63
2023-08-21T23:04:27.536Z,99546.49
2023-08-21T23:06:58.664Z,99550.64
2023-08-21T23:09:30.331Z,99549.14
2023-08-21T23:12:01.116Z,99546.67
2023-08-21T23:14:33.773Z,99543.31
2023-08-21T23:17:06.147Z,99542.18
2023-08-21T23:19:37.075Z,99545.20
2023-08-21T23:22:08.009Z,99542.48
2023-08-21T23:24:38.707Z,99541.98
2023-08-21T23:27:10.005Z,99543.11
2023-08-21T23:29:40.857Z,99542.18
2023-08-21T23:32:11.636Z,99541.75
2023-08-21T23:34:42.407Z,99539.36
2023-08-21T23:37:13.100Z,99534.27
2023-08-21T23:39:43.799Z,99532.58
2023-08-21T23:42:14.555Z,99530.50
2023-08-21T23:44:45.590Z,99528.27
2023-08-21T23:47:16.712Z,99530.52
2023-08-21T23:49:47.656Z,99524.36
2023-08-21T23:52:18.571Z,99524.16
2023-08-21T23:54:49.339Z,99522.71
2023-08-21T23:57:20.335Z,99522.04
2023-08-21T23:59:51.056Z,99513.52
